createdAt,value
2018-05-11T00:00:12.281Z,11.37
2018-05-11T00:02:45.536Z,11.38
2018-05-11T00:05:18.808Z,11.44
2018-05-11T00:07:52.068Z,11.44
2018-05-11T00:10:25.337Z,11.43
2018-05-11T00:12:58.600Z,11.40
2018-05-11T00:15:31.872Z,11.32
2018-05-11T00:18:05.121Z,11.33
2018-05-11T00:20:38.391Z,11.38
2018-05-11T00:23:12.418Z,11.32
2018-05-11T00:25:45.689Z,11.26
2018-05-11T00:28:19.729Z,11.30
2018-05-11T00:30:52.980Z,11.22
2018-05-11T00:33:26.240Z,11.16
2018-05-11T00:35:59.502Z,11.24
2018-05-11T00:38:32.768Z,11.21
2018-05-11T00:41:06.786Z,11.16
2018-05-11T00:43:40.056Z,11.26
2018-05-11T00:46:13.307Z,11.30
2018-05-11T00:48:46.597Z,11.31
2018-05-11T00:51:19.856Z,11.18
2018-05-11T00:53:54.185Z,11.20
2018-05-11T00:56:28.204Z,11.15
2018-05-11T00:59:01.549Z,11.01
2018-05-11T01:01:34.801Z,11.08
2018-05-11T01:04:08.167Z,11.00
2018-05-11T01:06:41.417Z,11.04
2018-05-11T01:09:14.693Z,10.95
2018-05-11T01:11:47.941Z,11.03
2018-05-11T01:14:21.215Z,11.05
2018-05-11T01:16:54.507Z,11.05
2018-05-11T01:19:27.741Z,11.01
2018-05-11T01:22:01.742Z,11.01
2018-05-11T01:24:35.771Z,10.98
2018-05-11T01:27:09.039Z,11.02
2018-05-11T01:29:42.308Z,11.03
2018-05-11T01:32:15.560Z,11.06
2018-05-11T01:34:48.846Z,11.02
2018-05-11T01:37:22.887Z,11.04
2018-05-11T01:39:56.151Z,11.08
2018-05-11T01:42:29.412Z,11.11
2018-05-11T01:45:02.676Z,11.16
2018-05-11T01:47:35.931Z,11.18
2018-05-11T01:50:09.960Z,11.25
2018-05-11T01:52:43.215Z,11.22
2018-05-11T01:55:16.499Z,11.26
2018-05-11T01:57:49.741Z,11.30
2018-05-11T02:00:23.010Z,11.31
2018-05-11T02:02:57.049Z,11.36
2018-05-11T02:05:30.628Z,11.40
2018-05-11T02:08:03.879Z,11.44
2018-05-11T02:10:37.160Z,11.46
2018-05-11T02:13:10.404Z,11.49
2018-05-11T02:15:44.453Z,11.54
2018-05-11T02:18:17.703Z,11.56
2018-05-11T02:20:51.320Z,11.57
2018-05-11T02:23:24.564Z,11.58
2018-05-11T02:25:57.913Z,11.59
2018-05-11T02:28:31.139Z,11.61
2018-05-11T02:31:04.396Z,11.66
2018-05-11T02:33:38.417Z,11.69
2018-05-11T02:36:11.697Z,11.69
2018-05-11T02:38:44.947Z,11.72
2018-05-11T02:41:18.216Z,11.73
2018-05-11T02:43:51.480Z,11.74
2018-05-11T02:46:25.514Z,11.76
2018-05-11T02:48:58.774Z,11.75
2018-05-11T02:51:32.808Z,11.76
2018-05-11T02:54:06.068Z,11.78
2018-05-11T02:56:39.356Z,11.80
2018-05-11T02:59:12.608Z,11.83
2018-05-11T03:01:45.888Z,11.85
2018-05-11T03:04:19.153Z,11.86
2018-05-11T03:06:52.423Z,11.85
2018-05-11T03:09:25.685Z,11.83
2018-05-11T03:11:58.972Z,11.83
2018-05-11T03:14:32.256Z,11.84
2018-05-11T03:17:05.519Z,11.85
2018-05-11T03:19:38.788Z,11.83
2018-05-11T03:22:12.059Z,11.82
2018-05-11T03:24:45.316Z,11.82
2018-05-11T03:27:19.349Z,11.81
2018-05-11T03:29:52.630Z,11.80
2018-05-11T03:32:26.656Z,11.81
2018-05-11T03:34:59.933Z,11.81
2018-05-11T03:37:33.207Z,11.81
2018-05-11T03:40:06.592Z,11.81
2018-05-11T03:42:39.845Z,11.83
2018-05-11T03:45:13.133Z,11.86
2018-05-11T03:47:46.488Z,11.87
2018-05-11T03:50:19.799Z,11.88
2018-05-11T03:52:53.076Z,11.90
2018-05-11T03:55:27.113Z,11.89
2018-05-11T03:58:00.399Z,11.89
2018-05-11T04:00:34.592Z,11.90
2018-05-11T04:03:25.568Z,11.93
2018-05-11T04:06:03.003Z,11.97
2018-05-11T04:08:44.690Z,12.01
2018-05-11T04:11:18.759Z,12.02
2018-05-11T04:13:52.012Z,11.99
2018-05-11T04:16:25.320Z,11.99
2018-05-11T04:18:58.569Z,11.99
2018-05-11T04:21:31.837Z,12.02
2018-05-11T04:24:05.096Z,12.03
2018-05-11T04:26:38.368Z,12.05
2018-05-11T04:29:12.395Z,12.13
2018-05-11T04:31:45.671Z,12.20
2018-05-11T04:34:19.711Z,12.30
2018-05-11T04:36:52.997Z,12.37
2018-05-11T04:39:26.273Z,12.43
2018-05-11T04:42:00.294Z,12.48
2018-05-11T04:44:34.341Z,12.46
2018-05-11T04:47:07.597Z,12.47
2018-05-11T04:49:40.868Z,12.44
2018-05-11T04:52:14.123Z,12.45
2018-05-11T04:54:47.392Z,12.36
2018-05-11T04:57:20.653Z,12.25
2018-05-11T04:59:53.919Z,12.20
2018-05-11T05:02:27.190Z,12.18
2018-05-11T05:05:00.461Z,12.18
2018-05-11T05:07:34.493Z,12.20
2018-05-11T05:10:07.787Z,12.18
2018-05-11T05:12:41.045Z,12.17
2018-05-11T05:15:14.317Z,12.19
2018-05-11T05:17:47.571Z,12.19
2018-05-11T05:20:20.850Z,12.16
2018-05-11T05:22:54.116Z,12.17
2018-05-11T05:25:27.407Z,12.22
2018-05-11T05:28:00.665Z,12.21
2018-05-11T05:30:33.944Z,12.23
2018-05-11T05:33:07.255Z,12.19
2018-05-11T05:35:41.247Z,12.22
2018-05-11T05:38:14.507Z,12.22
2018-05-11T05:40:48.560Z,12.22
2018-05-11T05:43:21.828Z,12.23
2018-05-11T05:45:55.189Z,12.25
2018-05-11T05:48:29.131Z,12.27
2018-05-11T05:51:02.412Z,12.28
2018-05-11T05:53:36.433Z,12.31
2018-05-11T05:56:10.475Z,12.42
2018-05-11T05:58:43.723Z,12.46
2018-05-11T06:01:17.769Z,12.57
2018-05-11T06:03:51.015Z,12.62
2018-05-11T06:06:24.292Z,12.63
2018-05-11T06:08:57.558Z,12.68
2018-05-11T06:11:30.945Z,12.73
2018-05-11T06:14:04.207Z,12.79
2018-05-11T06:16:38.256Z,12.95
2018-05-11T06:19:11.516Z,13.12
2018-05-11T06:21:44.821Z,13.27
2018-05-11T06:24:18.835Z,13.40
2018-05-11T06:26:52.896Z,13.45
2018-05-11T06:29:26.163Z,13.54
2018-05-11T06:31:59.676Z,13.63
2018-05-11T06:34:33.010Z,13.76
2018-05-11T06:37:06.432Z,13.73
2018-05-11T06:39:39.706Z,13.69
2018-05-11T06:42:13.343Z,13.62
2018-05-11T06:44:46.595Z,13.76
2018-05-11T06:47:19.878Z,13.82
2018-05-11T06:49:53.159Z,13.81
2018-05-11T06:52:26.426Z,13.87
2018-05-11T06:54:59.695Z,13.95
2018-05-11T06:57:33.736Z,13.97
2018-05-11T07:00:07.756Z,13.99
2018-05-11T07:02:41.029Z,13.98
2018-05-11T07:05:14.295Z,14.00
2018-05-11T07:07:48.427Z,14.02
2018-05-11T07:10:21.597Z,14.03
2018-05-11T07:12:55.648Z,14.05
2018-05-11T07:15:28.918Z,14.07
2018-05-11T07:18:02.184Z,14.09
2018-05-11T07:20:35.456Z,14.11
2018-05-11T07:23:08.724Z,14.14
2018-05-11T07:25:41.986Z,14.12
2018-05-11T07:28:16.147Z,14.17
2018-05-11T07:30:49.404Z,14.19
2018-05-11T07:33:22.688Z,14.28
2018-05-11T07:35:56.765Z,14.32
2018-05-11T07:38:30.046Z,14.32
2018-05-11T07:41:03.328Z,14.35
2018-05-11T07:43:36.593Z,14.39
2018-05-11T07:46:10.635Z,14.43
2018-05-11T07:48:43.916Z,14.48
2018-05-11T07:51:17.193Z,14.56
2018-05-11T07:53:50.472Z,14.65
2018-05-11T07:56:24.512Z,14.77
2018-05-11T07:58:57.770Z,14.84
2018-05-11T08:01:31.043Z,14.94
2018-05-11T08:04:04.404Z,15.03
2018-05-11T08:06:37.600Z,15.13
2018-05-11T08:09:10.869Z,15.19
2018-05-11T08:11:44.912Z,15.28
2018-05-11T08:14:18.243Z,15.36
2018-05-11T08:16:52.215Z,15.34
2018-05-11T08:19:25.477Z,15.40
2018-05-11T08:21:58.751Z,15.41
2018-05-11T08:24:32.020Z,15.40
2018-05-11T08:27:05.317Z,15.47
2018-05-11T08:29:38.583Z,15.49
2018-05-11T08:32:12.228Z,15.51
2018-05-11T08:34:46.511Z,15.56
2018-05-11T08:37:20.491Z,15.60
2018-05-11T08:39:54.056Z,15.65
2018-05-11T08:42:27.713Z,15.70
2018-05-11T08:45:01.333Z,15.74
2018-05-11T08:47:34.970Z,15.83
2018-05-11T08:50:08.527Z,15.88
2018-05-11T08:52:42.229Z,15.95
2018-05-11T08:55:15.732Z,16.01
2018-05-11T08:57:49.386Z,16.12
2018-05-11T09:00:22.929Z,16.22
2018-05-11T09:02:56.830Z,16.31
2018-05-11T09:05:31.187Z,16.35
2018-05-11T09:08:04.806Z,16.48
2018-05-11T09:10:38.387Z,16.55
2018-05-11T09:13:12.050Z,16.63
2018-05-11T09:15:45.649Z,16.61
2018-05-11T09:18:19.241Z,16.52
2018-05-11T09:20:52.802Z,16.48
2018-05-11T09:23:26.456Z,16.53
2018-05-11T09:26:00.030Z,16.49
2018-05-11T09:28:33.687Z,16.56
2018-05-11T09:31:07.270Z,16.68
2018-05-11T09:33:40.826Z,16.75
2018-05-11T09:36:14.372Z,16.71
2018-05-11T09:38:48.013Z,16.86
2018-05-11T09:41:21.601Z,16.95
2018-05-11T09:43:55.222Z,17.06
2018-05-11T09:46:28.873Z,17.12
2018-05-11T09:49:02.496Z,17.04
2018-05-11T09:51:36.062Z,16.89
2018-05-11T09:54:09.723Z,16.97
2018-05-11T09:56:43.192Z,17.05
2018-05-11T09:59:17.002Z,17.07
2018-05-11T10:01:50.569Z,17.14
2018-05-11T10:04:24.123Z,17.11
2018-05-11T10:06:58.426Z,17.16
2018-05-11T10:09:32.066Z,17.27
2018-05-11T10:12:06.469Z,17.31
2018-05-11T10:14:40.912Z,17.22
2018-05-11T10:17:14.459Z,17.16
2018-05-11T10:19:48.163Z,17.24
2018-05-11T10:22:22.308Z,17.32
2018-05-11T10:24:55.944Z,17.38
2018-05-11T10:27:29.539Z,17.51
2018-05-11T10:30:03.201Z,17.58
2018-05-11T10:32:36.531Z,17.69
2018-05-11T10:35:10.196Z,17.73
2018-05-11T10:37:43.534Z,17.79
2018-05-11T10:40:16.829Z,17.83
2018-05-11T10:42:50.168Z,17.76
2018-05-11T10:45:23.504Z,17.76
2018-05-11T10:47:56.780Z,17.72
2018-05-11T10:50:30.069Z,17.75
2018-05-11T10:53:03.342Z,17.80
2018-05-11T10:55:36.653Z,17.83
2018-05-11T10:58:09.913Z,17.89
2018-05-11T11:00:43.443Z,17.85
2018-05-11T11:03:16.685Z,17.79
2018-05-11T11:05:50.059Z,17.88
2018-05-11T11:08:23.831Z,17.93
2018-05-11T11:10:57.556Z,18.03
2018-05-11T11:13:31.612Z,18.09
2018-05-11T11:16:05.503Z,18.12
2018-05-11T11:18:40.320Z,18.16
2018-05-11T11:21:14.906Z,18.27
2018-05-11T11:23:48.557Z,18.34
2018-05-11T11:26:23.588Z,18.43
2018-05-11T11:28:58.193Z,18.53
2018-05-11T11:31:31.928Z,18.58
2018-05-11T11:34:06.328Z,18.65
2018-05-11T11:36:40.036Z,18.70
2018-05-11T11:39:14.399Z,18.82
2018-05-11T11:41:48.166Z,18.97
2018-05-11T11:44:22.090Z,19.09
2018-05-11T11:46:55.815Z,19.19
2018-05-11T11:49:29.442Z,19.34
2018-05-11T11:52:03.074Z,19.27
2018-05-11T11:54:37.723Z,19.40
2018-05-11T11:57:12.351Z,19.53
2018-05-11T11:59:46.766Z,19.60
2018-05-11T12:02:21.299Z,19.83
2018-05-11T12:04:55.665Z,20.01
2018-05-11T12:07:29.296Z,20.11
2018-05-11T12:10:03.869Z,20.20
2018-05-11T12:12:37.615Z,20.13
2018-05-11T12:15:11.170Z,20.27
2018-05-11T12:17:44.782Z,20.48
2018-05-11T12:20:18.417Z,20.65
2018-05-11T12:22:52.079Z,20.71
2018-05-11T12:25:25.628Z,20.92
2018-05-11T12:28:03.666Z,20.98
2018-05-11T12:30:38.176Z,20.94
2018-05-11T12:33:12.697Z,21.09
2018-05-11T12:35:47.394Z,21.21
2018-05-11T12:38:21.010Z,21.34
2018-05-11T12:40:55.331Z,21.32
2018-05-11T12:43:28.837Z,21.37
2018-05-11T12:46:02.285Z,21.66
2018-05-11T12:48:35.621Z,21.91
2018-05-11T12:51:08.885Z,22.00
2018-05-11T12:53:42.187Z,22.05
2018-05-11T12:56:15.460Z,22.38
2018-05-11T12:58:48.759Z,22.52
2018-05-11T13:01:22.060Z,22.62
2018-05-11T13:03:55.327Z,22.58
2018-05-11T13:06:29.380Z,22.64
2018-05-11T13:09:02.664Z,22.69
2018-05-11T13:11:36.009Z,22.72
2018-05-11T13:14:09.292Z,22.29
2018-05-11T13:16:42.698Z,22.23
2018-05-11T13:19:15.963Z,22.31
2018-05-11T13:21:49.395Z,22.48
2018-05-11T13:24:23.445Z,22.61
2018-05-11T13:26:56.736Z,22.74
2018-05-11T13:29:30.019Z,22.96
2018-05-11T13:32:03.293Z,23.16
2018-05-11T13:34:36.572Z,23.30
2018-05-11T13:37:10.677Z,23.41
2018-05-11T13:39:43.931Z,23.54
2018-05-11T13:42:17.215Z,23.67
2018-05-11T13:44:50.472Z,23.77
2018-05-11T13:47:23.780Z,23.87
2018-05-11T13:49:57.039Z,23.99
2018-05-11T13:52:30.315Z,24.07
2018-05-11T13:55:03.573Z,24.06
2018-05-11T13:57:36.855Z,24.08
2018-05-11T14:00:10.103Z,24.33
2018-05-11T14:02:43.379Z,24.38
2018-05-11T14:05:16.645Z,24.40
2018-05-11T14:07:49.920Z,24.49
2018-05-11T14:10:23.202Z,24.49
2018-05-11T14:12:56.455Z,24.45
2018-05-11T14:15:29.704Z,24.39
2018-05-11T14:18:03.763Z,24.52
2018-05-11T14:20:37.021Z,24.69
2018-05-11T14:23:10.292Z,24.80
2018-05-11T14:25:43.552Z,24.69
2018-05-11T14:28:16.832Z,24.58
2018-05-11T14:30:50.088Z,24.68
2018-05-11T14:33:24.132Z,24.85
2018-05-11T14:35:57.389Z,25.08
2018-05-11T14:38:30.655Z,25.24
2018-05-11T14:41:03.908Z,25.52
2018-05-11T14:43:37.181Z,25.68
2018-05-11T14:46:10.431Z,25.76
2018-05-11T14:48:43.720Z,25.93
2018-05-11T14:51:16.982Z,25.98
2018-05-11T14:53:50.249Z,26.01
2018-05-11T14:56:24.275Z,26.21
2018-05-11T14:58:57.567Z,26.35
2018-05-11T15:01:31.623Z,26.40
2018-05-11T15:04:05.258Z,26.47
2018-05-11T15:06:38.483Z,26.54
2018-05-11T15:09:11.765Z,26.51
2018-05-11T15:11:45.792Z,26.81
2018-05-11T15:14:19.127Z,26.87
2018-05-11T15:16:52.410Z,26.98
2018-05-11T15:19:25.784Z,26.98
2018-05-11T15:21:59.051Z,27.25
2018-05-11T15:24:32.337Z,27.38
2018-05-11T15:27:05.609Z,27.18
2018-05-11T15:29:38.884Z,27.23
2018-05-11T15:32:12.138Z,27.46
2018-05-11T15:34:46.289Z,27.19
2018-05-11T15:37:19.538Z,27.24
2018-05-11T15:39:53.574Z,27.15
2018-05-11T15:42:26.832Z,26.84
2018-05-11T15:45:00.105Z,26.87
2018-05-11T15:47:33.355Z,27.04
2018-05-11T15:50:06.820Z,27.28
2018-05-11T15:52:40.067Z,27.47
2018-05-11T15:55:13.348Z,27.61
2018-05-11T15:57:46.661Z,27.75
2018-05-11T16:00:19.930Z,27.66
2018-05-11T16:02:53.204Z,28.04
2018-05-11T16:05:27.259Z,28.18
2018-05-11T16:08:00.512Z,28.43
2018-05-11T16:10:34.570Z,28.49
2018-05-11T16:13:07.881Z,28.36
2018-05-11T16:15:41.259Z,28.32
2018-05-11T16:18:17.790Z,28.28
2018-05-11T16:20:51.170Z,28.39
2018-05-11T16:23:25.194Z,28.36
2018-05-11T16:25:59.248Z,28.16
2018-05-11T16:28:32.501Z,28.26
2018-05-11T16:31:06.729Z,28.26
2018-05-11T16:33:39.991Z,28.48
2018-05-11T16:36:13.281Z,28.56
2018-05-11T16:38:46.560Z,28.51
2018-05-11T16:41:19.870Z,28.29
2018-05-11T16:43:53.135Z,28.01
2018-05-11T16:46:26.424Z,27.98
2018-05-11T16:48:59.675Z,28.18
2018-05-11T16:51:32.947Z,27.70
2018-05-11T16:54:06.976Z,27.55
2018-05-11T16:56:41.017Z,27.56
2018-05-11T16:59:14.275Z,27.60
2018-05-11T17:01:47.544Z,27.29
2018-05-11T17:04:20.800Z,27.11
2018-05-11T17:06:54.112Z,26.93
2018-05-11T17:09:27.381Z,27.13
2018-05-11T17:12:00.674Z,27.37
2018-05-11T17:14:33.928Z,27.29
2018-05-11T17:17:07.195Z,27.01
2018-05-11T17:19:40.449Z,26.94
2018-05-11T17:22:13.737Z,27.01
2018-05-11T17:24:47.000Z,27.08
2018-05-11T17:27:20.297Z,27.02
2018-05-11T17:29:53.556Z,27.18
2018-05-11T17:32:26.816Z,27.38
2018-05-11T17:35:00.080Z,27.46
2018-05-11T17:37:33.366Z,27.71
2018-05-11T17:40:06.629Z,27.78
2018-05-11T17:42:39.900Z,27.88
2018-05-11T17:45:13.152Z,28.01
2018-05-11T17:47:46.445Z,28.11
2018-05-11T17:50:19.708Z,28.08
2018-05-11T17:52:53.054Z,28.05
2018-05-11T17:55:26.311Z,28.01
2018-05-11T17:57:59.601Z,27.94
2018-05-11T18:00:32.850Z,27.89
2018-05-11T18:03:06.158Z,27.81
2018-05-11T18:05:40.152Z,27.74
2018-05-11T18:08:13.423Z,27.49
2018-05-11T18:10:46.692Z,27.28
2018-05-11T18:13:19.976Z,27.19
2018-05-11T18:15:53.244Z,27.06
2018-05-11T18:18:26.511Z,26.96
2018-05-11T18:21:00.532Z,26.84
2018-05-11T18:23:33.814Z,26.76
2018-05-11T18:26:07.851Z,26.59
2018-05-11T18:28:41.102Z,26.46
2018-05-11T18:31:14.387Z,26.32
2018-05-11T18:33:47.644Z,26.21
2018-05-11T18:36:20.933Z,26.06
2018-05-11T18:38:54.198Z,25.96
2018-05-11T18:41:27.472Z,25.84
2018-05-11T18:44:00.765Z,25.73
2018-05-11T18:46:34.044Z,25.59
2018-05-11T18:49:07.338Z,25.42
2018-05-11T18:51:40.625Z,25.31
2018-05-11T18:54:14.254Z,25.23
2018-05-11T18:56:47.175Z,25.13
2018-05-11T18:59:20.429Z,25.03
2018-05-11T19:01:53.736Z,24.92
2018-05-11T19:04:26.999Z,24.74
2018-05-11T19:07:00.276Z,24.64
2018-05-11T19:09:33.536Z,24.59
2018-05-11T19:12:06.836Z,24.53
2018-05-11T19:14:40.094Z,24.40
2018-05-11T19:17:13.351Z,24.23
2018-05-11T19:19:46.604Z,24.10
2018-05-11T19:22:19.882Z,24.08
2018-05-11T19:24:53.139Z,24.08
2018-05-11T19:27:26.407Z,24.06
2018-05-11T19:29:59.704Z,23.99
2018-05-11T19:32:32.990Z,23.92
2018-05-11T19:35:06.274Z,23.88
2018-05-11T19:37:40.311Z,23.81
2018-05-11T19:40:13.559Z,23.79
2018-05-11T19:42:46.843Z,23.73
2018-05-11T19:45:20.095Z,23.65
2018-05-11T19:47:53.376Z,23.59
2018-05-11T19:50:26.659Z,23.53
2018-05-11T19:52:59.931Z,23.51
2018-05-11T19:55:33.952Z,23.40
2018-05-11T19:58:07.253Z,23.24
2018-05-11T20:00:40.522Z,23.01
2018-05-11T20:03:14.037Z,22.70
2018-05-11T20:05:47.408Z,22.55
2018-05-11T20:08:26.172Z,22.34
2018-05-11T20:10:59.443Z,22.20
2018-05-11T20:13:32.712Z,22.07
2018-05-11T20:16:06.007Z,22.08
2018-05-11T20:18:39.298Z,22.06
2018-05-11T20:21:12.552Z,22.00
2018-05-11T20:23:45.856Z,21.98
2018-05-11T20:26:19.139Z,21.91
2018-05-11T20:28:52.525Z,21.64
2018-05-11T20:31:25.824Z,21.40
2018-05-11T20:33:59.109Z,21.19
2018-05-11T20:36:32.355Z,20.91
2018-05-11T20:39:06.484Z,20.72
2018-05-11T20:41:39.771Z,20.69
2018-05-11T20:44:13.048Z,20.71
2018-05-11T20:46:46.317Z,20.68
2018-05-11T20:49:19.647Z,20.60
2018-05-11T20:51:52.916Z,20.57
2018-05-11T20:54:26.209Z,20.50
2018-05-11T20:56:59.465Z,20.41
2018-05-11T20:59:33.514Z,20.42
2018-05-11T21:02:06.777Z,20.43
2018-05-11T21:04:40.829Z,20.33
2018-05-11T21:07:14.091Z,20.31
2018-05-11T21:09:47.385Z,20.25
2018-05-11T21:12:21.415Z,20.21
2018-05-11T21:14:54.696Z,20.21
2018-05-11T21:17:27.962Z,20.22
2018-05-11T21:20:01.260Z,20.22
2018-05-11T21:22:34.546Z,20.26
2018-05-11T21:25:07.860Z,20.35
2018-05-11T21:27:41.892Z,20.44
2018-05-11T21:30:15.172Z,20.42
2018-05-11T21:32:48.437Z,20.37
2018-05-11T21:35:21.727Z,20.27
2018-05-11T21:37:54.990Z,20.23
2018-05-11T21:40:28.260Z,20.23
2018-05-11T21:43:01.527Z,20.16
2018-05-11T21:45:35.571Z,20.08
2018-05-11T21:48:08.836Z,19.92
2018-05-11T21:50:42.965Z,19.84
2018-05-11T21:53:16.143Z,19.71
2018-05-11T21:55:50.213Z,19.64
2018-05-11T21:58:23.481Z,19.56
2018-05-11T22:00:56.753Z,19.62
2018-05-11T22:03:30.015Z,19.69
2018-05-11T22:06:03.882Z,19.71
2018-05-11T22:08:37.116Z,19.74
2018-05-11T22:11:10.403Z,19.72
2018-05-11T22:13:43.657Z,19.70
2018-05-11T22:16:16.967Z,19.55
2018-05-11T22:18:50.234Z,19.52
2018-05-11T22:21:23.512Z,19.48
2018-05-11T22:23:57.544Z,19.47
2018-05-11T22:26:30.843Z,19.40
2018-05-11T22:29:04.102Z,19.35
